sensor_id;sensor_type;location;lat;lon;timestamp;pressure;altitude;pressure_sealevel;temperature;humidity
58018;BME280;43810;50.860;19.226;2023-02-03T00:01:52;99170.63;;;0.58;78.78
58018;BME280;43810;50.860;19.226;2023-02-03T00:04:17;99179.50;;;0.57;79.22
58018;BME280;43810;50.860;19.226;2023-02-03T00:06:44;99185.25;;;0.59;79.32
58018;BME280;43810;50.860;19.226;2023-02-03T00:09:10;99178.00;;;0.66;79.25
58018;BME280;43810;50.860;19.226;2023-02-03T00:11:36;99192.16;;;0.70;78.93
58018;BME280;43810;50.860;19.226;2023-02-03T00:14:02;99184.06;;;0.72;78.90
58018;BME280;43810;50.860;19.226;2023-02-03T00:16:30;99181.69;;;0.70;78.82
58018;BME280;43810;50.860;19.226;2023-02-03T00:18:56;99178.50;;;0.63;79.39
58018;BME280;43810;50.860;19.226;2023-02-03T00:21:21;99185.59;;;0.68;79.89
58018;BME280;43810;50.860;19.226;2023-02-03T00:23:47;99190.38;;;0.76;79.51
58018;BME280;43810;50.860;19.226;2023-02-03T00:26:15;99185.91;;;0.71;79.58
58018;BME280;43810;50.860;19.226;2023-02-03T00:28:41;99189.78;;;0.69;79.74
58018;BME280;43810;50.860;19.226;2023-02-03T00:31:19;99185.56;;;0.62;80.22
58018;BME280;43810;50.860;19.226;2023-02-03T00:33:46;99189.47;;;0.60;80.14
58018;BME280;43810;50.860;19.226;2023-02-03T00:36:13;99196.97;;;0.51;80.10
58018;BME280;43810;50.860;19.226;2023-02-03T00:38:38;99200.31;;;0.47;80.70
58018;BME280;43810;50.860;19.226;2023-02-03T00:41:05;99194.50;;;0.40;80.22
58018;BME280;43810;50.860;19.226;2023-02-03T00:43:32;99187.16;;;0.37;80.73
58018;BME280;43810;50.860;19.226;2023-02-03T00:45:58;99197.41;;;0.43;81.10
58018;BME280;43810;50.860;19.226;2023-02-03T00:48:24;99196.59;;;0.43;80.48
58018;BME280;43810;50.860;19.226;2023-02-03T00:50:50;99189.56;;;0.43;79.68
58018;BME280;43810;50.860;19.226;2023-02-03T00:53:17;99191.66;;;0.41;78.90
58018;BME280;43810;50.860;19.226;2023-02-03T00:55:43;99186.59;;;0.35;75.82
58018;BME280;43810;50.860;19.226;2023-02-03T00:58:09;99175.34;;;0.34;74.12
58018;BME280;43810;50.860;19.226;2023-02-03T01:00:36;99188.38;;;0.29;73.10
58018;BME280;43810;50.860;19.226;2023-02-03T01:03:03;99182.13;;;0.30;73.76
58018;BME280;43810;50.860;19.226;2023-02-03T01:05:29;99182.41;;;0.34;73.66
58018;BME280;43810;50.860;19.226;2023-02-03T01:07:55;99174.00;;;0.32;73.95
58018;BME280;43810;50.860;19.226;2023-02-03T01:10:21;99184.84;;;0.40;74.15
58018;BME280;43810;50.860;19.226;2023-02-03T01:12:47;99179.66;;;0.45;74.18
58018;BME280;43810;50.860;19.226;2023-02-03T01:15:13;99184.94;;;0.50;74.62
58018;BME280;43810;50.860;19.226;2023-02-03T01:17:40;99183.34;;;0.49;74.92
58018;BME280;43810;50.860;19.226;2023-02-03T01:20:08;99168.78;;;0.58;74.62
58018;BME280;43810;50.860;19.226;2023-02-03T01:22:36;99176.44;;;0.65;75.32
58018;BME280;43810;50.860;19.226;2023-02-03T01:25:03;99179.78;;;0.60;74.88
58018;BME280;43810;50.860;19.226;2023-02-03T01:27:30;99181.06;;;0.58;74.04
58018;BME280;43810;50.860;19.226;2023-02-03T01:29:56;99193.06;;;0.54;74.99
58018;BME280;43810;50.860;19.226;2023-02-03T01:32:22;99174.22;;;0.52;75.18
58018;BME280;43810;50.860;19.226;2023-02-03T01:34:48;99179.50;;;0.57;75.00
58018;BME280;43810;50.860;19.226;2023-02-03T01:37:15;99179.69;;;0.50;74.50
58018;BME280;43810;50.860;19.226;2023-02-03T01:39:43;99170.75;;;0.41;74.32
58018;BME280;43810;50.860;19.226;2023-02-03T01:42:13;99163.03;;;0.30;74.56
58018;BME280;43810;50.860;19.226;2023-02-03T01:49:48;99156.47;;;0.27;73.77
58018;BME280;43810;50.860;19.226;2023-02-03T01:52:17;99153.06;;;0.26;74.19
58018;BME280;43810;50.860;19.226;2023-02-03T01:54:46;99154.69;;;0.33;74.09
58018;BME280;43810;50.860;19.226;2023-02-03T01:57:17;99159.72;;;0.39;74.39
58018;BME280;43810;50.860;19.226;2023-02-03T01:59:44;99151.41;;;0.42;74.75
58018;BME280;43810;50.860;19.226;2023-02-03T02:02:11;99150.31;;;0.38;75.13
58018;BME280;43810;50.860;19.226;2023-02-03T02:04:48;99143.56;;;0.42;74.54
58018;BME280;43810;50.860;19.226;2023-02-03T02:07:16;99146.06;;;0.32;74.88
58018;BME280;43810;50.860;19.226;2023-02-03T02:09:44;99141.84;;;0.26;75.51
58018;BME280;43810;50.860;19.226;2023-02-03T02:12:11;99147.53;;;0.23;75.46
58018;BME280;43810;50.860;19.226;2023-02-03T02:14:38;99151.16;;;0.17;75.77
58018;BME280;43810;50.860;19.226;2023-02-03T02:23:06;99149.97;;;0.03;76.15
58018;BME280;43810;50.860;19.226;2023-02-03T02:34:09;99114.28;;;-0.35;77.06
58018;BME280;43810;50.860;19.226;2023-02-03T02:37:00;99104.03;;;-0.42;77.38
58018;BME280;43810;50.860;19.226;2023-02-03T02:39:45;99101.31;;;-0.52;77.27
58018;BME280;43810;50.860;19.226;2023-02-03T02:42:23;99086.84;;;-0.60;77.97
58018;BME280;43810;50.860;19.226;2023-02-03T02:44:52;99092.13;;;-0.76;78.18
58018;BME280;43810;50.860;19.226;2023-02-03T02:47:22;99080.72;;;-0.70;78.75
58018;BME280;43810;50.860;19.226;2023-02-03T02:49:59;99074.53;;;-0.64;77.96
58018;BME280;43810;50.860;19.226;2023-02-03T02:52:29;99073.56;;;-0.58;77.62
58018;BME280;43810;50.860;19.226;2023-02-03T02:55:02;99075.13;;;-0.57;77.30
58018;BME280;43810;50.860;19.226;2023-02-03T02:57:30;99084.31;;;-0.55;76.67
58018;BME280;43810;50.860;19.226;2023-02-03T02:59:59;99084.00;;;-0.58;76.36
58018;BME280;43810;50.860;19.226;2023-02-03T03:02:33;99102.72;;;-0.61;76.85
58018;BME280;43810;50.860;19.226;2023-02-03T03:05:00;99107.34;;;-0.68;77.06
58018;BME280;43810;50.860;19.226;2023-02-03T03:07:28;99118.34;;;-0.66;76.83
58018;BME280;43810;50.860;19.226;2023-02-03T03:09:59;99121.97;;;-0.67;76.50
58018;BME280;43810;50.860;19.226;2023-02-03T03:12:33;99126.84;;;-0.76;77.17
58018;BME280;43810;50.860;19.226;2023-02-03T03:15:03;99128.88;;;-0.78;77.45
58018;BME280;43810;50.860;19.226;2023-02-03T03:17:44;99137.28;;;-0.76;77.07
58018;BME280;43810;50.860;19.226;2023-02-03T03:20:20;99129.91;;;-0.79;77.33
58018;BME280;43810;50.860;19.226;2023-02-03T03:22:52;99115.53;;;-0.82;77.41
58018;BME280;43810;50.860;19.226;2023-02-03T03:25:25;99108.00;;;-0.78;77.49
58018;BME280;43810;50.860;19.226;2023-02-03T03:27:58;99095.69;;;-0.83;78.06
58018;BME280;43810;50.860;19.226;2023-02-03T03:30:32;99086.78;;;-0.87;77.96
58018;BME280;43810;50.860;19.226;2023-02-03T03:32:59;99088.84;;;-0.89;78.84
58018;BME280;43810;50.860;19.226;2023-02-03T03:35:31;99076.88;;;-0.85;78.25
58018;BME280;43810;50.860;19.226;2023-02-03T03:38:16;99083.75;;;-0.78;78.11
58018;BME280;43810;50.860;19.226;2023-02-03T03:40:53;99073.31;;;-0.78;78.21
58018;BME280;43810;50.860;19.226;2023-02-03T03:43:27;99077.03;;;-0.74;78.50
58018;BME280;43810;50.860;19.226;2023-02-03T03:46:29;99060.03;;;-0.99;78.45
58018;BME280;43810;50.860;19.226;2023-02-03T03:49:04;99066.25;;;-1.00;79.68
58018;BME280;43810;50.860;19.226;2023-02-03T03:51:45;99055.59;;;-0.98;79.46
58018;BME280;43810;50.860;19.226;2023-02-03T03:54:16;99063.22;;;-0.92;78.92
58018;BME280;43810;50.860;19.226;2023-02-03T03:57:06;99065.72;;;-0.80;78.42
58018;BME280;43810;50.860;19.226;2023-02-03T03:59:36;99074.94;;;-0.72;77.95
58018;BME280;43810;50.860;19.226;2023-02-03T04:02:05;99064.94;;;-0.80;78.04
58018;BME280;43810;50.860;19.226;2023-02-03T04:04:33;99070.63;;;-0.84;78.78
58018;BME280;43810;50.860;19.226;2023-02-03T04:07:01;99070.44;;;-0.99;78.82
58018;BME280;43810;50.860;19.226;2023-02-03T04:09:27;99070.03;;;-0.91;79.16
58018;BME280;43810;50.860;19.226;2023-02-03T04:11:52;99062.50;;;-0.87;79.00
58018;BME280;43810;50.860;19.226;2023-02-03T04:14:28;99055.97;;;-0.90;78.97
58018;BME280;43810;50.860;19.226;2023-02-03T04:16:55;99057.97;;;-0.97;79.32
58018;BME280;43810;50.860;19.226;2023-02-03T04:19:22;99061.38;;;-0.96;79.21
58018;BME280;43810;50.860;19.226;2023-02-03T04:21:48;99060.03;;;-0.99;79.23
58018;BME280;43810;50.860;19.226;2023-02-03T04:24:14;99064.13;;;-1.03;79.61
58018;BME280;43810;50.860;19.226;2023-02-03T04:26:39;99054.16;;;-1.06;79.52
58018;BME280;43810;50.860;19.226;2023-02-03T04:29:05;99054.66;;;-1.09;79.52
58018;BME280;43810;50.860;19.226;2023-02-03T04:31:31;99047.94;;;-1.05;79.51
58018;BME280;43810;50.860;19.226;2023-02-03T04:33:57;99048.34;;;-1.13;79.34
58018;BME280;43810;50.860;19.226;2023-02-03T04:36:23;99053.38;;;-1.06;79.41
58018;BME280;43810;50.860;19.226;2023-02-03T04:38:50;99048.66;;;-1.09;79.53
58018;BME280;43810;50.860;19.226;2023-02-03T04:41:15;99041.06;;;-1.11;79.74
58018;BME280;43810;50.860;19.226;2023-02-03T04:43:42;99045.09;;;-1.03;79.32
58018;BME280;43810;50.860;19.226;2023-02-03T04:46:08;99031.69;;;-1.12;79.15
58018;BME280;43810;50.860;19.226;2023-02-03T04:48:35;99031.78;;;-1.24;79.12
58018;BME280;43810;50.860;19.226;2023-02-03T04:51:03;99018.09;;;-1.31;79.59
58018;BME280;43810;50.860;19.226;2023-02-03T04:53:30;99017.25;;;-1.20;80.01
58018;BME280;43810;50.860;19.226;2023-02-03T04:55:56;99012.50;;;-1.23;79.99
58018;BME280;43810;50.860;19.226;2023-02-03T04:58:22;99020.31;;;-1.23;79.69
58018;BME280;43810;50.860;19.226;2023-02-03T05:00:48;99005.72;;;-1.24;79.69
58018;BME280;43810;50.860;19.226;2023-02-03T05:03:14;99005.06;;;-1.14;79.99
58018;BME280;43810;50.860;19.226;2023-02-03T05:05:40;99005.53;;;-1.17;79.55
58018;BME280;43810;50.860;19.226;2023-02-03T05:08:06;98995.88;;;-1.16;80.04
58018;BME280;43810;50.860;19.226;2023-02-03T05:10:31;98994.69;;;-1.09;79.85
58018;BME280;43810;50.860;19.226;2023-02-03T05:12:57;98989.97;;;-1.12;79.29
58018;BME280;43810;50.860;19.226;2023-02-03T05:15:23;98986.09;;;-1.09;79.79
58018;BME280;43810;50.860;19.226;2023-02-03T05:17:55;98986.50;;;-1.17;79.06
58018;BME280;43810;50.860;19.226;2023-02-03T05:20:21;98981.50;;;-1.19;79.59
58018;BME280;43810;50.860;19.226;2023-02-03T05:22:47;98982.69;;;-1.10;79.66
58018;BME280;43810;50.860;19.226;2023-02-03T05:25:13;98983.63;;;-1.16;80.02
58018;BME280;43810;50.860;19.226;2023-02-03T05:27:40;98979.84;;;-1.08;80.02
58018;BME280;43810;50.860;19.226;2023-02-03T05:30:07;98967.53;;;-1.13;79.83
58018;BME280;43810;50.860;19.226;2023-02-03T05:32:34;98956.09;;;-1.07;79.85
58018;BME280;43810;50.860;19.226;2023-02-03T05:35:00;98954.00;;;-1.10;80.14
58018;BME280;43810;50.860;19.226;2023-02-03T05:37:26;98939.81;;;-1.19;80.04
58018;BME280;43810;50.860;19.226;2023-02-03T05:39:51;98945.41;;;-1.10;80.01
58018;BME280;43810;50.860;19.226;2023-02-03T05:42:17;98941.94;;;-1.16;79.95
58018;BME280;43810;50.860;19.226;2023-02-03T05:44:43;98939.31;;;-1.16;80.14
58018;BME280;43810;50.860;19.226;2023-02-03T05:47:09;98931.94;;;-1.24;80.27
58018;BME280;43810;50.860;19.226;2023-02-03T05:49:35;98921.63;;;-1.14;80.40
58018;BME280;43810;50.860;19.226;2023-02-03T05:52:01;98912.19;;;-1.20;80.12
58018;BME280;43810;50.860;19.226;2023-02-03T05:54:27;98923.63;;;-1.21;80.88
58018;BME280;43810;50.860;19.226;2023-02-03T05:56:52;98912.22;;;-1.15;80.81
58018;BME280;43810;50.860;19.226;2023-02-03T05:59:18;98915.81;;;-1.21;80.99
58018;BME280;43810;50.860;19.226;2023-02-03T06:01:44;98912.97;;;-1.20;80.65
58018;BME280;43810;50.860;19.226;2023-02-03T06:04:10;98904.88;;;-1.18;81.11
58018;BME280;43810;50.860;19.226;2023-02-03T06:06:36;98909.06;;;-1.17;80.73
58018;BME280;43810;50.860;19.226;2023-02-03T06:09:07;98905.44;;;-1.16;80.61
58018;BME280;43810;50.860;19.226;2023-02-03T06:11:34;98902.03;;;-1.16;80.76
58018;BME280;43810;50.860;19.226;2023-02-03T06:14:00;98897.97;;;-1.29;80.92
58018;BME280;43810;50.860;19.226;2023-02-03T06:16:27;98890.22;;;-1.24;80.90
58018;BME280;43810;50.860;19.226;2023-02-03T06:18:54;98896.28;;;-1.19;80.81
58018;BME280;43810;50.860;19.226;2023-02-03T06:21:24;98898.16;;;-1.14;80.80
58018;BME280;43810;50.860;19.226;2023-02-03T06:23:49;98892.47;;;-1.11;80.99
58018;BME280;43810;50.860;19.226;2023-02-03T06:26:15;98883.63;;;-1.10;81.06
58018;BME280;43810;50.860;19.226;2023-02-03T06:28:41;98888.22;;;-1.17;81.13
58018;BME280;43810;50.860;19.226;2023-02-03T06:31:07;98890.22;;;-1.24;81.51
58018;BME280;43810;50.860;19.226;2023-02-03T06:33:33;98880.69;;;-1.13;81.46
58018;BME280;43810;50.860;19.226;2023-02-03T06:35:59;98867.72;;;-1.08;81.33
58018;BME280;43810;50.860;19.226;2023-02-03T06:38:25;98865.91;;;-1.08;81.25
58018;BME280;43810;50.860;19.226;2023-02-03T06:40:50;98854.25;;;-1.00;81.24
58018;BME280;43810;50.860;19.226;2023-02-03T06:43:16;98851.41;;;-0.99;81.36
58018;BME280;43810;50.860;19.226;2023-02-03T06:45:46;98846.22;;;-0.94;81.01
58018;BME280;43810;50.860;19.226;2023-02-03T06:48:12;98845.66;;;-0.96;81.00
58018;BME280;43810;50.860;19.226;2023-02-03T06:50:38;98842.81;;;-0.94;81.39
58018;BME280;43810;50.860;19.226;2023-02-03T06:53:03;98842.09;;;-0.90;81.01
58018;BME280;43810;50.860;19.226;2023-02-03T06:55:29;98831.97;;;-0.86;81.04
58018;BME280;43810;50.860;19.226;2023-02-03T06:57:55;98839.00;;;-0.87;80.87
58018;BME280;43810;50.860;19.226;2023-02-03T07:00:21;98834.28;;;-0.85;80.71
58018;BME280;43810;50.860;19.226;2023-02-03T07:02:54;98829.19;;;-0.74;80.84
58018;BME280;43810;50.860;19.226;2023-02-03T07:05:22;98820.84;;;-0.71;80.49
58018;BME280;43810;50.860;19.226;2023-02-03T07:07:48;98817.50;;;-0.67;80.31
58018;BME280;43810;50.860;19.226;2023-02-03T07:10:15;98813.84;;;-0.66;80.27
58018;BME280;43810;50.860;19.226;2023-02-03T07:12:41;98811.56;;;-0.57;80.46
58018;BME280;43810;50.860;19.226;2023-02-03T07:15:08;98805.56;;;-0.58;79.91
58018;BME280;43810;50.860;19.226;2023-02-03T07:17:34;98790.50;;;-0.46;79.88
58018;BME280;43810;50.860;19.226;2023-02-03T07:20:00;98791.31;;;-0.45;79.50
58018;BME280;43810;50.860;19.226;2023-02-03T07:22:25;98785.34;;;-0.40;79.71
58018;BME280;43810;50.860;19.226;2023-02-03T07:24:51;98775.19;;;-0.32;79.14
58018;BME280;43810;50.860;19.226;2023-02-03T07:27:17;98777.22;;;-0.44;79.33
58018;BME280;43810;50.860;19.226;2023-02-03T07:29:44;98768.09;;;-0.41;79.63
58018;BME280;43810;50.860;19.226;2023-02-03T07:32:10;98767.91;;;-0.30;78.54
58018;BME280;43810;50.860;19.226;2023-02-03T07:34:36;98761.88;;;-0.35;79.11
58018;BME280;43810;50.860;19.226;2023-02-03T07:37:02;98745.16;;;-0.34;79.18
58018;BME280;43810;50.860;19.226;2023-02-03T07:39:28;98746.00;;;-0.24;78.94
58018;BME280;43810;50.860;19.226;2023-02-03T07:41:54;98744.47;;;-0.15;77.60
58018;BME280;43810;50.860;19.226;2023-02-03T07:44:20;98742.09;;;-0.21;78.06
58018;BME280;43810;50.860;19.226;2023-02-03T07:46:46;98741.59;;;-0.18;78.26
58018;BME280;43810;50.860;19.226;2023-02-03T07:49:13;98733.00;;;-0.14;77.57
58018;BME280;43810;50.860;19.226;2023-02-03T07:51:39;98727.25;;;-0.16;77.32
58018;BME280;43810;50.860;19.226;2023-02-03T07:54:05;98724.16;;;-0.02;77.27
58018;BME280;43810;50.860;19.226;2023-02-03T07:56:31;98719.25;;;0.06;76.93
58018;BME280;43810;50.860;19.226;2023-02-03T07:58:59;98704.66;;;0.15;76.96
58018;BME280;43810;50.860;19.226;2023-02-03T08:01:25;98706.44;;;0.05;76.42
58018;BME280;43810;50.860;19.226;2023-02-03T08:03:56;98681.34;;;0.09;76.19
58018;BME280;43810;50.860;19.226;2023-02-03T08:06:21;98682.94;;;0.10;75.83
58018;BME280;43810;50.860;19.226;2023-02-03T08:08:48;98668.03;;;0.10;75.95
58018;BME280;43810;50.860;19.226;2023-02-03T08:11:13;98662.84;;;0.20;75.84
58018;BME280;43810;50.860;19.226;2023-02-03T08:13:42;98668.06;;;0.20;75.81
58018;BME280;43810;50.860;19.226;2023-02-03T08:16:07;98666.78;;;0.23;75.77
58018;BME280;43810;50.860;19.226;2023-02-03T08:18:33;98674.09;;;0.31;75.04
58018;BME280;43810;50.860;19.226;2023-02-03T08:20:59;98659.19;;;0.32;74.90
58018;BME280;43810;50.860;19.226;2023-02-03T08:23:27;98667.34;;;0.40;74.63
58018;BME280;43810;50.860;19.226;2023-02-03T08:25:52;98656.88;;;0.45;74.71
58018;BME280;43810;50.860;19.226;2023-02-03T08:28:19;98657.94;;;0.49;74.66
58018;BME280;43810;50.860;19.226;2023-02-03T08:30:45;98656.88;;;0.55;74.40
58018;BME280;43810;50.860;19.226;2023-02-03T08:33:11;98662.66;;;0.62;74.58
58018;BME280;43810;50.860;19.226;2023-02-03T08:35:36;98655.84;;;0.67;73.62
58018;BME280;43810;50.860;19.226;2023-02-03T08:38:05;98642.00;;;0.71;73.58
58018;BME280;43810;50.860;19.226;2023-02-03T08:40:31;98645.13;;;0.68;74.20
58018;BME280;43810;50.860;19.226;2023-02-03T08:42:57;98635.44;;;0.69;73.70
58018;BME280;43810;50.860;19.226;2023-02-03T08:45:22;98631.25;;;0.68;73.74
58018;BME280;43810;50.860;19.226;2023-02-03T08:47:48;98622.38;;;0.74;74.19
58018;BME280;43810;50.860;19.226;2023-02-03T08:50:14;98626.03;;;0.83;73.54
58018;BME280;43810;50.860;19.226;2023-02-03T08:52:40;98628.09;;;1.01;73.21
58018;BME280;43810;50.860;19.226;2023-02-03T08:55:06;98635.88;;;1.26;71.88
58018;BME280;43810;50.860;19.226;2023-02-03T08:57:34;98628.09;;;1.11;71.57
58018;BME280;43810;50.860;19.226;2023-02-03T09:00:00;98638.56;;;1.01;72.88
58018;BME280;43810;50.860;19.226;2023-02-03T09:02:27;98638.06;;;0.99;73.01
58018;BME280;43810;50.860;19.226;2023-02-03T09:04:53;98628.09;;;1.11;72.72
58018;BME280;43810;50.860;19.226;2023-02-03T09:07:20;98636.16;;;1.25;72.87
58018;BME280;43810;50.860;19.226;2023-02-03T09:09:49;98631.19;;;1.13;72.64
58018;BME280;43810;50.860;19.226;2023-02-03T09:12:15;98617.56;;;1.26;72.75
58018;BME280;43810;50.860;19.226;2023-02-03T09:14:41;98617.34;;;1.23;73.77
58018;BME280;43810;50.860;19.226;2023-02-03T09:17:08;98607.31;;;1.35;73.29
58018;BME280;43810;50.860;19.226;2023-02-03T09:19:34;98604.66;;;1.50;73.66
58018;BME280;43810;50.860;19.226;2023-02-03T09:22:00;98599.94;;;1.57;73.81
58018;BME280;43810;50.860;19.226;2023-02-03T09:24:26;98590.19;;;1.68;73.31
58018;BME280;43810;50.860;19.226;2023-02-03T09:26:53;98586.03;;;1.62;73.84
58018;BME280;43810;50.860;19.226;2023-02-03T09:29:22;98584.72;;;1.59;73.93
58018;BME280;43810;50.860;19.226;2023-02-03T09:31:49;98567.53;;;1.43;74.33
58018;BME280;43810;50.860;19.226;2023-02-03T09:34:18;98567.28;;;1.40;74.97
58018;BME280;43810;50.860;19.226;2023-02-03T09:36:45;98559.63;;;1.53;74.13
58018;BME280;43810;50.860;19.226;2023-02-03T09:39:11;98543.72;;;1.45;74.10
58018;BME280;43810;50.860;19.226;2023-02-03T09:42:15;98543.47;;;1.36;74.57
58018;BME280;43810;50.860;19.226;2023-02-03T09:44:45;98532.78;;;1.32;75.46
58018;BME280;43810;50.860;19.226;2023-02-03T09:47:17;98525.97;;;1.31;75.64
58018;BME280;43810;50.860;19.226;2023-02-03T09:49:49;98504.56;;;1.14;76.79
58018;BME280;43810;50.860;19.226;2023-02-03T09:52:20;98497.75;;;1.13;77.16
58018;BME280;43810;50.860;19.226;2023-02-03T09:57:46;98474.88;;;0.85;79.07
58018;BME280;43810;50.860;19.226;2023-02-03T10:00:20;98461.56;;;0.76;79.66
58018;BME280;43810;50.860;19.226;2023-02-03T10:02:55;98463.88;;;0.78;80.64
58018;BME280;43810;50.860;19.226;2023-02-03T10:14:49;98421.09;;;0.63;82.42
58018;BME280;43810;50.860;19.226;2023-02-03T10:19:44;98406.97;;;0.54;83.25
58018;BME280;43810;50.860;19.226;2023-02-03T10:22:15;98404.88;;;0.61;83.36
58018;BME280;43810;50.860;19.226;2023-02-03T10:27:34;98369.81;;;0.68;83.44
58018;BME280;43810;50.860;19.226;2023-02-03T10:30:24;98352.59;;;0.61;83.59
58018;BME280;43810;50.860;19.226;2023-02-03T10:32:53;98349.97;;;0.61;83.79
58018;BME280;43810;50.860;19.226;2023-02-03T10:35:25;98334.81;;;0.58;84.15
58018;BME280;43810;50.860;19.226;2023-02-03T10:37:56;98322.06;;;0.52;84.23
58018;BME280;43810;50.860;19.226;2023-02-03T10:40:24;98312.66;;;0.46;85.07
58018;BME280;43810;50.860;19.226;2023-02-03T10:42:50;98305.09;;;0.44;85.32
58018;BME280;43810;50.860;19.226;2023-02-03T10:45:37;98291.44;;;0.57;85.34
58018;BME280;43810;50.860;19.226;2023-02-03T10:48:04;98284.31;;;0.68;85.18
58018;BME280;43810;50.860;19.226;2023-02-03T10:50:31;98277.78;;;0.66;84.50
58018;BME280;43810;50.860;19.226;2023-02-03T10:55:48;98257.31;;;0.39;85.69
58018;BME280;43810;50.860;19.226;2023-02-03T10:58:20;98237.94;;;0.45;86.20
58018;BME280;43810;50.860;19.226;2023-02-03T11:00:57;98233.22;;;0.47;86.04
58018;BME280;43810;50.860;19.226;2023-02-03T11:03:28;98219.81;;;0.58;86.07
58018;BME280;43810;50.860;19.226;2023-02-03T11:06:15;98218.03;;;0.49;85.94
58018;BME280;43810;50.860;19.226;2023-02-03T11:08:46;98200.47;;;0.59;86.28
58018;BME280;43810;50.860;19.226;2023-02-03T11:11:27;98192.09;;;0.62;86.34
58018;BME280;43810;50.860;19.226;2023-02-03T11:16:20;98172.38;;;0.75;86.33
58018;BME280;43810;50.860;19.226;2023-02-03T11:24:03;98131.00;;;0.82;86.22
58018;BME280;43810;50.860;19.226;2023-02-03T11:26:54;98120.09;;;0.75;86.43
58018;BME280;43810;50.860;19.226;2023-02-03T11:29:24;98118.72;;;0.83;85.84
58018;BME280;43810;50.860;19.226;2023-02-03T11:31:53;98106.38;;;0.88;86.03
58018;BME280;43810;50.860;19.226;2023-02-03T11:34:26;98099.53;;;0.92;85.75
58018;BME280;43810;50.860;19.226;2023-02-03T11:36:54;98088.34;;;0.87;86.12
58018;BME280;43810;50.860;19.226;2023-02-03T11:41:46;98067.47;;;1.06;85.89
58018;BME280;43810;50.860;19.226;2023-02-03T11:46:48;98060.63;;;1.10;85.74
58018;BME280;43810;50.860;19.226;2023-02-03T11:52:34;98047.84;;;1.08;85.79
58018;BME280;43810;50.860;19.226;2023-02-03T12:00:35;98020.00;;;0.93;86.43
58018;BME280;43810;50.860;19.226;2023-02-03T12:23:10;97943.19;;;1.08;87.59
58018;BME280;43810;50.860;19.226;2023-02-03T12:26:01;97943.28;;;1.22;87.38
58018;BME280;43810;50.860;19.226;2023-02-03T12:28:47;97937.91;;;1.32;87.48
58018;BME280;43810;50.860;19.226;2023-02-03T12:36:34;97900.22;;;1.33;87.23
58018;BME280;43810;50.860;19.226;2023-02-03T12:41:49;97888.81;;;1.43;87.34
58018;BME280;43810;50.860;19.226;2023-02-03T12:44:22;97881.63;;;1.48;86.76
58018;BME280;43810;50.860;19.226;2023-02-03T12:46:59;97869.06;;;1.50;86.94
58018;BME280;43810;50.860;19.226;2023-02-03T12:49:37;97871.16;;;1.48;87.25
58018;BME280;43810;50.860;19.226;2023-02-03T12:52:19;97859.16;;;1.47;87.04
58018;BME280;43810;50.860;19.226;2023-02-03T12:54:56;97849.88;;;1.55;86.86
58018;BME280;43810;50.860;19.226;2023-02-03T13:02:41;97825.88;;;1.34;87.86
58018;BME280;43810;50.860;19.226;2023-02-03T13:05:20;97808.84;;;1.50;87.64
58018;BME280;43810;50.860;19.226;2023-02-03T13:07:53;97803.00;;;1.40;87.59
58018;BME280;43810;50.860;19.226;2023-02-03T13:10:28;97799.22;;;1.32;88.12
58018;BME280;43810;50.860;19.226;2023-02-03T13:12:57;97786.13;;;1.32;88.18
58018;BME280;43810;50.860;19.226;2023-02-03T13:15:30;97783.59;;;1.27;88.21
58018;BME280;43810;50.860;19.226;2023-02-03T13:18:03;97772.56;;;1.30;88.57
58018;BME280;43810;50.860;19.226;2023-02-03T13:20:34;97764.41;;;1.31;88.57
58018;BME280;43810;50.860;19.226;2023-02-03T13:23:06;97750.38;;;1.41;87.96
58018;BME280;43810;50.860;19.226;2023-02-03T13:28:49;97741.50;;;1.23;88.26
58018;BME280;43810;50.860;19.226;2023-02-03T13:31:24;97714.78;;;1.26;88.62
58018;BME280;43810;50.860;19.226;2023-02-03T13:34:14;97703.44;;;1.17;88.78
58018;BME280;43810;50.860;19.226;2023-02-03T13:37:02;97700.81;;;1.17;89.21
58018;BME280;43810;50.860;19.226;2023-02-03T13:39:41;97686.78;;;1.27;89.00
58018;BME280;43810;50.860;19.226;2023-02-03T13:44:43;97678.16;;;1.26;89.05
58018;BME280;43810;50.860;19.226;2023-02-03T13:47:23;97679.69;;;1.27;88.95
58018;BME280;43810;50.860;19.226;2023-02-03T13:50:17;97651.63;;;1.33;88.61
58018;BME280;43810;50.860;19.226;2023-02-03T13:52:46;97643.47;;;1.34;88.24
58018;BME280;43810;50.860;19.226;2023-02-03T13:57:52;97634.06;;;1.20;88.63
58018;BME280;43810;50.860;19.226;2023-02-03T14:04:02;97637.75;;;1.32;88.55
58018;BME280;43810;50.860;19.226;2023-02-03T14:06:03;97637.75;;;1.32;88.68
58018;BME280;43810;50.860;19.226;2023-02-03T14:16:51;97612.16;;;1.29;88.97
58018;BME280;43810;50.860;19.226;2023-02-03T14:21:54;97613.72;;;1.30;88.60
58018;BME280;43810;50.860;19.226;2023-02-03T14:24:22;97618.84;;;1.35;88.74
58018;BME280;43810;50.860;19.226;2023-02-03T14:26:50;97616.69;;;1.38;88.30
58018;BME280;43810;50.860;19.226;2023-02-03T14:29:27;97613.03;;;1.39;88.72
58018;BME280;43810;50.860;19.226;2023-02-03T14:32:04;97617.00;;;1.36;88.40
58018;BME280;43810;50.860;19.226;2023-02-03T14:34:41;97610.97;;;1.35;88.70
58018;BME280;43810;50.860;19.226;2023-02-03T14:37:17;97617.19;;;1.40;88.62
58018;BME280;43810;50.860;19.226;2023-02-03T14:42:49;97603.03;;;1.41;88.24
58018;BME280;43810;50.860;19.226;2023-02-03T14:51:09;97606.94;;;1.43;88.84
58018;BME280;43810;50.860;19.226;2023-02-03T14:54:02;97613.59;;;1.35;88.70
58018;BME280;43810;50.860;19.226;2023-02-03T14:59:46;97594.72;;;1.39;88.73
58018;BME280;43810;50.860;19.226;2023-02-03T15:02:16;97591.59;;;1.36;88.87
58018;BME280;43810;50.860;19.226;2023-02-03T15:04:45;97582.09;;;1.41;89.19
58018;BME280;43810;50.860;19.226;2023-02-03T15:07:34;97585.59;;;1.50;88.83
58018;BME280;43810;50.860;19.226;2023-02-03T15:10:00;97585.19;;;1.56;88.48
58018;BME280;43810;50.860;19.226;2023-02-03T15:12:26;97578.00;;;1.62;88.15
58018;BME280;43810;50.860;19.226;2023-02-03T15:15:13;97576.34;;;1.66;87.40
58018;BME280;43810;50.860;19.226;2023-02-03T15:17:40;97573.81;;;1.75;87.48